COOK1: Arkansas River Nr Coolidge, KS

                                SHEF ID:       COOK1     ARKANSAS R NR COOLIDGE, KS
STATION TYPE:
Regulating: Stage = 8.00, Flow = 2028

PRECIP STAGE STAGE(2) RIV-FLOW WTR-TEMP CONDUCT BAT-LOAD
in ft ft cfs F umho/cm volt
Ccp-Rev Ccp-Rev Ccp-Rev Ccp-Rev Ccp-Rev Ccp-Rev Ccp-Rev
(America/Chicago)
08/14 00:00 0.00 3.32 3.30 132 76.62 5504 13.00
08/14 01:00 0.00 3.34 3.32 135 75.65 5530 13.00
08/14 02:00 0.00 3.32 3.35 132 74.77 5535 13.00
08/14 03:00 0.00 3.33 3.28 134 74.03 5519 12.95
08/14 04:00 0.00 3.30 3.31 129 73.18 5481 12.95
08/14 05:00 0.00 3.30 3.29 129 72.37 5472 12.95
08/14 06:00 0.00 3.29 3.28 128 71.60 5479 12.89
08/14 07:00 0.00 3.33 3.31 134 70.77 5483 12.89
08/14 08:00 0.00 3.38 3.37 141 70.18 5490 12.89
08/14 09:00 0.00 3.45 3.42 151 70.05 5512 13.00
08/14 10:00 0.00 3.50 3.46 159 70.41 5465 13.36
08/14 11:00 0.00 3.51 3.47 161 71.89 5265 13.71
08/14 12:00 0.00 3.52 3.51 162 73.58 5029 13.77
08/14 13:00 0.00 3.50 3.47 159 75.60 4928 13.71
08/14 14:00 0.00 3.47 3.47 154 77.79 4896 13.77
08/14 15:00 0.00 3.46 3.43 153 80.10 4896 13.59
08/14 16:00 0.00 3.44 3.43 150 81.97 4923 13.83
08/14 17:00 0.00 3.41 3.38 145 82.51 4963 13.24
08/14 18:00 0.00 3.34 3.34 135 83.28 5033 13.30
08/14 19:00 0.00 3.34 3.31 135 83.52 5116 13.18
08/14 20:00 0.00 3.32 3.31 132 82.94 5215 13.18
08/14 21:00 0.00 3.30 3.28 129 82.08 5310 13.07
08/14 22:00 0.00 3.29 3.27 128 81.03 5386 13.07
08/14 23:00 ---- ---- ---- ---- ---- ---- ----
Data processed at Thu 15Aug2024 04:30 GMT

Parsing this webpage?

Checkout our new Data API! CWMSDataAPI (CDA)

Timeseries IDs (TSIDs)

TSIDs used from left to right in the data table
COOL.Precip-Inc.Total.1Hour.1Hour.Ccp-Rev
COOL.Stage.Inst.1Hour.0.Ccp-Rev
COOL.Stage-Alt.Inst.1Hour.0.Ccp-Rev
COOL.Flow.Inst.1Hour.0.Ccp-Rev
COOL.Temp-Water.Inst.1Hour.0.Ccp-Rev
COOL.Cond.Inst.1Hour.0.Ccp-Rev
COOL.Volt-Battery Load.Inst.1Hour.0.Ccp-Rev

                            

All information presented herein is the property of the government of the United States of America and may be revised or deleted at any time without prior notice. Dissemination of this information without the expressed written consent of the Public Affairs Office, Tulsa District U.S. Army Corps of Engineers is strictly prohibited. These data are gathered electronically and, as presented, have NOT undergone any form of quality control. These data are NOT guaranteed to be valid or correct.